Time;durP1;ratioP1;P1;durP2;ratioP2;P2;SDS_P1;SDS_P2;PMS_P1;PMS_P2;Temp;Humidity;BMP_temperature;BMP_pressure;BME280_temperature;BME280_humidity;BME280_pressure;Samples;Min_cycle;Max_cycle;Signal;HPM_P1;HPM_P2
2022/06/28 00:02:07;;;;;;;5.18;2.47;;;;;;;14.12;80.67;99152.56;4892533;29;20069;-88
2022/06/28 00:04:33;;;;;;;6.63;2.40;;;;;;;14.09;81.55;99147.72;4912321;29;20112;-88
2022/06/28 00:06:58;;;;;;;7.13;2.65;;;;;;;13.98;81.90;99151.06;4882834;29;20040;-87
2022/06/28 00:09:25;;;;;;;7.65;2.50;;;;;;;13.84;82.42;99148.50;4886849;29;20040;-87
2022/06/28 00:11:51;;;;;;;8.00;2.95;;;;;;;13.93;83.01;99153.53;4871236;29;20064;-89
2022/06/28 00:17:03;;;;;;;5.00;2.10;;;;;;;13.81;84.31;99148.13;4898917;29;20119;-88
2022/06/28 00:19:29;;;;;;;5.10;2.30;;;;;;;13.77;84.77;99150.41;4909196;29;20062;-86
2022/06/28 00:21:55;;;;;;;8.88;2.55;;;;;;;13.58;85.82;99152.13;4918374;29;20040;-87
2022/06/28 00:24:22;;;;;;;6.03;2.35;;;;;;;13.71;86.16;99161.78;4896700;29;20171;-86
2022/06/28 00:26:48;;;;;;;8.05;2.25;;;;;;;13.66;86.54;99164.25;4873152;29;20040;-86
2022/06/28 00:29:15;;;;;;;9.02;2.75;;;;;;;13.52;87.55;99150.31;4906524;29;20080;-86
2022/06/28 00:31:41;;;;;;;8.50;2.33;;;;;;;13.64;88.06;99161.00;4898195;29;20040;-85
2022/06/28 00:34:07;;;;;;;12.20;2.80;;;;;;;13.55;88.07;99158.59;4912356;29;20515;-86
2022/06/28 00:36:33;;;;;;;3.97;1.95;;;;;;;13.61;88.74;99162.22;4891090;29;20071;-90
2022/06/28 00:38:59;;;;;;;3.55;2.00;;;;;;;13.56;89.21;99154.16;4906830;29;20111;-88
2022/06/28 00:41:25;;;;;;;8.23;2.60;;;;;;;13.61;89.60;99161.44;4906064;29;20043;-88
2022/06/28 00:43:51;;;;;;;6.05;2.08;;;;;;;13.49;90.13;99151.53;4890952;29;20123;-87
2022/06/28 00:46:17;;;;;;;8.55;2.15;;;;;;;13.50;90.80;99155.81;4892230;29;20118;-88
2022/06/28 00:48:43;;;;;;;5.70;3.15;;;;;;;13.48;91.59;99151.78;4893815;29;20487;-87
2022/06/28 00:51:09;;;;;;;8.25;2.63;;;;;;;13.51;92.03;99167.97;4905037;29;20028;-88
2022/06/28 00:53:35;;;;;;;8.85;2.60;;;;;;;13.48;92.40;99157.84;4907152;29;20043;-88
2022/06/28 00:56:00;;;;;;;9.25;2.55;;;;;;;13.52;92.41;99163.50;4907128;29;20036;-89
2022/06/28 00:58:26;;;;;;;7.35;2.05;;;;;;;13.52;93.01;99164.31;4888606;29;20042;-90
2022/06/28 01:00:52;;;;;;;7.38;2.25;;;;;;;13.50;93.19;99162.91;4879929;29;20072;-88
2022/06/28 01:03:20;;;;;;;13.20;2.47;;;;;;;13.51;93.81;99172.44;4909566;29;20402;-88
2022/06/28 01:05:46;;;;;;;9.38;2.60;;;;;;;13.50;94.53;99168.19;4894234;29;20047;-87
2022/06/28 01:08:12;;;;;;;8.05;2.38;;;;;;;13.45;94.35;99168.81;4891879;29;20083;-88
2022/06/28 01:10:39;;;;;;;12.93;2.88;;;;;;;13.40;95.00;99172.03;4911911;29;20399;-87
2022/06/28 01:13:06;;;;;;;8.63;2.20;;;;;;;13.32;95.69;99174.94;4873114;29;20036;-86
2022/06/28 01:15:32;;;;;;;9.93;2.35;;;;;;;13.25;96.49;99177.59;4891863;29;20044;-88
2022/06/28 01:18:04;;;;;;;9.45;2.58;;;;;;;13.29;96.77;99180.63;4890968;29;20039;-90
2022/06/28 01:20:29;;;;;;;7.45;2.20;;;;;;;13.35;97.34;99166.59;4897616;29;20055;-88
2022/06/28 01:22:55;;;;;;;13.95;2.53;;;;;;;13.37;97.43;99174.31;4883488;29;20032;-87
2022/06/28 01:25:23;;;;;;;8.00;2.80;;;;;;;13.57;97.13;99163.69;4918924;29;20032;-90
2022/06/28 01:27:50;;;;;;;6.20;2.38;;;;;;;13.73;97.30;99156.31;4893273;29;20172;-87
2022/06/28 01:30:15;;;;;;;8.35;3.00;;;;;;;13.83;97.23;99165.38;4911143;29;20033;-87
2022/06/28 01:32:41;;;;;;;8.75;2.22;;;;;;;13.84;97.05;99147.69;4874874;29;20118;-89
2022/06/28 01:35:08;;;;;;;6.13;2.25;;;;;;;13.81;97.27;99156.84;4893421;29;20116;-89
2022/06/28 01:37:35;;;;;;;8.80;2.30;;;;;;;13.82;97.33;99144.47;4891838;29;20491;-87
2022/06/28 01:40:00;;;;;;;6.65;2.58;;;;;;;13.78;97.55;99146.72;4911160;29;20099;-87
2022/06/28 01:42:29;;;;;;;8.18;2.70;;;;;;;13.78;97.71;99148.53;4915931;29;20063;-87
2022/06/28 01:44:56;;;;;;;5.30;2.17;;;;;;;13.75;97.85;99147.13;4891775;29;20038;-87
2022/06/28 01:47:26;;;;;;;8.30;2.80;;;;;;;13.66;98.36;99146.59;4907016;29;20132;-87
2022/06/28 01:49:53;;;;;;;6.13;2.42;;;;;;;13.73;98.61;99148.38;4893756;29;20028;-87
2022/06/28 01:52:20;;;;;;;6.85;2.13;;;;;;;13.76;98.76;99156.69;4910412;29;20854;-85
2022/06/28 01:54:46;;;;;;;7.20;2.47;;;;;;;13.79;99.12;99158.06;4906506;29;20033;-86
2022/06/28 01:57:12;;;;;;;7.93;2.20;;;;;;;13.84;99.19;99156.44;4898450;29;20435;-86
2022/06/28 01:59:38;;;;;;;7.93;2.55;;;;;;;13.91;99.50;99161.66;4907079;29;20095;-86
2022/06/28 02:02:04;;;;;;;6.40;2.20;;;;;;;13.82;99.81;99158.47;4889342;29;20028;-86
2022/06/28 02:04:30;;;;;;;11.10;2.58;;;;;;;13.94;99.81;99165.69;4892241;29;20028;-89
2022/06/28 02:06:56;;;;;;;7.18;2.58;;;;;;;13.93;100.00;99149.06;4892395;29;20033;-88
2022/06/28 02:09:23;;;;;;;7.85;2.70;;;;;;;13.98;100.00;99161.63;4895600;29;20032;-87
2022/06/28 02:11:49;;;;;;;11.00;2.35;;;;;;;14.07;100.00;99164.81;4897648;29;20558;-88
2022/06/28 02:14:15;;;;;;;8.35;2.80;;;;;;;13.95;100.00;99169.94;4893295;29;20171;-86
2022/06/28 02:16:41;;;;;;;13.45;2.65;;;;;;;13.84;100.00;99159.06;4886565;29;20088;-88
2022/06/28 02:19:06;;;;;;;9.32;2.25;;;;;;;13.83;100.00;99159.25;4886584;29;20037;-86
2022/06/28 02:21:40;;;;;;;7.32;2.10;;;;;;;13.82;100.00;99158.47;4910153;29;20535;-87
2022/06/28 02:24:07;;;;;;;8.38;2.53;;;;;;;13.80;100.00;99149.13;4887471;29;20041;-87
2022/06/28 02:26:33;;;;;;;7.63;2.35;;;;;;;13.68;100.00;99149.84;4892445;29;20126;-88
2022/06/28 02:29:00;;;;;;;13.32;2.85;;;;;;;13.75;100.00;99147.13;4908299;29;20029;-87
2022/06/28 02:31:26;;;;;;;10.05;2.65;;;;;;;13.84;100.00;99139.78;4910464;29;20107;-87
2022/06/28 02:33:52;;;;;;;10.80;2.83;;;;;;;13.89;100.00;99136.50;4891535;29;20480;-87
2022/06/28 02:41:46;;;;;;;10.45;2.72;;;;;;;14.05;100.00;99141.25;4890820;29;20024;-89
2022/06/28 02:44:12;;;;;;;13.18;2.75;;;;;;;14.07;100.00;99131.28;4906768;29;20444;-89
2022/06/28 02:46:38;;;;;;;9.90;2.78;;;;;;;13.97;100.00;99123.06;4877683;29;20066;-88
2022/06/28 02:49:04;;;;;;;8.18;2.58;;;;;;;14.10;100.00;99138.78;4905930;29;20032;-90
2022/06/28 02:51:29;;;;;;;9.23;3.03;;;;;;;14.14;100.00;99139.16;4898038;29;20035;-89
2022/06/28 02:53:55;;;;;;;11.10;2.72;;;;;;;14.10;100.00;99133.50;4908412;29;20035;-88
2022/06/28 02:56:21;;;;;;;7.53;2.55;;;;;;;14.15;100.00;99124.94;4906211;29;20056;-88
2022/06/28 02:58:51;;;;;;;7.97;3.00;;;;;;;14.12;100.00;99120.88;4911499;29;20087;-89
2022/06/28 03:01:18;;;;;;;7.75;2.63;;;;;;;14.18;100.00;99131.63;4907640;29;20044;-90
2022/06/28 03:03:43;;;;;;;9.15;2.78;;;;;;;14.16;100.00;99125.75;4889208;29;20043;-88
2022/06/28 03:06:11;;;;;;;11.15;3.55;;;;;;;14.13;100.00;99127.78;4892245;29;20035;-88
2022/06/28 03:08:39;;;;;;;12.20;2.72;;;;;;;13.92;100.00;99126.34;4889810;29;20036;-87
2022/06/28 03:11:07;;;;;;;16.90;3.17;;;;;;;13.86;100.00;99127.19;4906814;29;20131;-87
2022/06/28 03:13:37;;;;;;;8.77;2.65;;;;;;;14.04;100.00;99129.09;4906803;29;20040;-87
2022/06/28 03:16:03;;;;;;;9.73;2.70;;;;;;;14.04;100.00;99121.16;4903208;29;20040;-88
2022/06/28 03:18:29;;;;;;;14.48;3.20;;;;;;;13.98;100.00;99111.50;4893349;29;20124;-88
2022/06/28 03:20:55;;;;;;;16.05;3.45;;;;;;;13.96;100.00;99108.25;4911507;29;20479;-88
2022/06/28 03:23:21;;;;;;;8.55;3.00;;;;;;;13.83;100.00;99107.31;4888739;29;20042;-86
2022/06/28 03:25:46;;;;;;;14.25;3.30;;;;;;;13.81;100.00;99119.09;4887584;29;20404;-89
2022/06/28 03:28:12;;;;;;;12.75;3.30;;;;;;;13.84;100.00;99124.75;4912015;29;20118;-86
2022/06/28 03:30:38;;;;;;;7.30;2.80;;;;;;;13.85;100.00;99109.72;4904858;29;20036;-87
2022/06/28 03:33:04;;;;;;;9.60;2.85;;;;;;;13.63;100.00;99114.56;4891800;29;20027;-86
2022/06/28 03:35:29;;;;;;;13.63;3.40;;;;;;;13.79;100.00;99116.69;4889959;29;20380;-88
2022/06/28 03:37:55;;;;;;;9.70;3.30;;;;;;;13.79;100.00;99124.59;4891286;29;20051;-86
2022/06/28 03:40:20;;;;;;;10.48;3.30;;;;;;;13.81;100.00;99119.91;4912772;29;20035;-88
2022/06/28 03:42:46;;;;;;;9.57;3.35;;;;;;;13.82;100.00;99121.53;4907275;29;20128;-87
2022/06/28 03:45:11;;;;;;;8.20;2.92;;;;;;;13.69;100.00;99114.53;4907681;29;20060;-88
2022/06/28 03:47:38;;;;;;;12.13;2.55;;;;;;;13.76;100.00;99103.09;4892683;29;20395;-88
2022/06/28 03:50:04;;;;;;;15.25;3.65;;;;;;;13.83;100.00;99112.59;4905930;29;20035;-87
2022/06/28 03:52:30;;;;;;;15.05;3.15;;;;;;;13.84;100.00;99108.13;4905548;29;20116;-88
2022/06/28 03:55:00;;;;;;;11.20;3.30;;;;;;;13.84;100.00;99116.84;4887580;29;20104;-88
2022/06/28 03:57:26;;;;;;;9.40;3.17;;;;;;;13.94;100.00;99123.47;4894216;29;20039;-88
2022/06/28 03:59:53;;;;;;;16.33;3.60;;;;;;;13.92;100.00;99110.50;4908337;29;20032;-87
2022/06/28 04:02:18;;;;;;;7.35;2.80;;;;;;;14.00;100.00;99112.88;4871198;29;20049;-88
2022/06/28 04:04:44;;;;;;;10.73;3.78;;;;;;;14.01;100.00;99113.69;4906577;29;20046;-87
2022/06/28 04:07:10;;;;;;;16.63;3.47;;;;;;;14.13;100.00;99125.16;4902465;29;20037;-89
2022/06/28 04:09:35;;;;;;;15.48;3.72;;;;;;;14.10;100.00;99120.31;4912561;29;20043;-87
2022/06/28 04:12:01;;;;;;;14.68;3.83;;;;;;;14.24;100.00;99112.28;4907083;29;20127;-88
2022/06/28 04:14:27;;;;;;;9.65;3.45;;;;;;;14.38;100.00;99124.34;4905433;29;20036;-86
2022/06/28 04:16:52;;;;;;;12.32;2.88;;;;;;;14.33;100.00;99115.44;4918684;29;20095;-88
2022/06/28 04:19:18;;;;;;;14.90;3.53;;;;;;;14.42;100.00;99120.25;4892119;29;20033;-87
2022/06/28 04:21:43;;;;;;;13.52;3.50;;;;;;;14.57;100.00;99116.44;4893712;29;20475;-86
2022/06/28 04:24:09;;;;;;;8.93;3.03;;;;;;;14.58;100.00;99110.13;4889751;29;20044;-87
2022/06/28 04:26:35;;;;;;;12.07;3.83;;;;;;;14.58;100.00;99096.94;4914945;29;20050;-86
2022/06/28 04:29:00;;;;;;;8.27;2.85;;;;;;;14.68;100.00;99102.50;4908481;29;20394;-89
2022/06/28 04:31:26;;;;;;;12.40;3.90;;;;;;;14.63;100.00;99099.72;4904355;29;20087;-87
2022/06/28 04:33:52;;;;;;;19.52;4.40;;;;;;;14.65;100.00;99100.31;4875904;29;20075;-87
2022/06/28 04:36:17;;;;;;;10.75;3.15;;;;;;;14.61;100.00;99101.78;4893879;29;20045;-85
2022/06/28 04:38:43;;;;;;;12.52;3.83;;;;;;;14.64;100.00;99100.50;4904770;29;20048;-86
2022/06/28 04:41:08;;;;;;;9.98;3.00;;;;;;;14.59;100.00;99093.25;4893900;29;20025;-85
2022/06/28 04:43:34;;;;;;;12.50;3.30;;;;;;;14.60;100.00;99094.88;4898675;29;20392;-84
2022/06/28 04:45:59;;;;;;;14.25;3.60;;;;;;;14.53;100.00;99087.00;4911902;29;20452;-84
2022/06/28 04:48:25;;;;;;;12.68;3.13;;;;;;;14.73;100.00;99079.91;4914067;29;20106;-85
2022/06/28 04:50:50;;;;;;;10.85;3.10;;;;;;;14.88;100.00;99079.56;4891344;29;20076;-85
2022/06/28 04:53:16;;;;;;;12.32;3.80;;;;;;;15.00;100.00;99083.06;4894142;29;20056;-87
2022/06/28 04:55:44;;;;;;;11.73;3.13;;;;;;;15.13;100.00;99087.38;4900794;29;20505;-86
2022/06/28 04:58:10;;;;;;;10.70;3.70;;;;;;;15.25;100.00;99085.59;4911432;29;20471;-88
2022/06/28 05:00:35;;;;;;;18.17;3.63;;;;;;;15.24;100.00;99073.41;4895345;29;20047;-88
2022/06/28 05:03:01;;;;;;;11.13;3.17;;;;;;;15.41;100.00;99083.34;4906079;29;20519;-87
2022/06/28 05:05:28;;;;;;;16.10;4.03;;;;;;;15.38;100.00;99067.94;4909218;29;20418;-87
2022/06/28 05:07:53;;;;;;;12.32;3.10;;;;;;;15.52;100.00;99071.19;4893741;29;20035;-85
2022/06/28 05:10:19;;;;;;;12.30;3.33;;;;;;;15.60;100.00;99065.56;4875079;29;20032;-89
2022/06/28 05:12:44;;;;;;;11.90;3.70;;;;;;;15.68;100.00;99067.06;4889869;29;20056;-88
2022/06/28 05:15:10;;;;;;;11.70;3.45;;;;;;;15.82;100.00;99054.44;4899632;29;20040;-87
2022/06/28 05:17:36;;;;;;;16.25;4.07;;;;;;;15.74;100.00;99060.91;4890075;29;20047;-84
2022/06/28 05:20:02;;;;;;;10.00;2.97;;;;;;;15.95;100.00;99050.81;4909474;29;20123;-86
2022/06/28 05:22:28;;;;;;;13.80;3.70;;;;;;;15.89;100.00;99059.66;4894758;29;20028;-88
2022/06/28 05:24:54;;;;;;;17.25;3.17;;;;;;;16.05;100.00;99058.19;4909726;29;20028;-86
2022/06/28 05:27:20;;;;;;;12.65;3.03;;;;;;;16.17;100.00;99045.72;4889019;29;20028;-86
2022/06/28 05:29:46;;;;;;;10.95;2.85;;;;;;;16.21;100.00;99038.16;4897400;29;20039;-85
2022/06/28 05:32:12;;;;;;;10.25;2.47;;;;;;;16.32;100.00;99044.47;4891052;29;20063;-83
2022/06/28 05:34:38;;;;;;;17.77;3.28;;;;;;;16.31;100.00;99026.97;4909216;29;20390;-82
2022/06/28 05:37:04;;;;;;;10.60;3.08;;;;;;;16.49;100.00;99031.28;4890415;29;20028;-84
2022/06/28 05:39:29;;;;;;;14.50;3.97;;;;;;;16.40;100.00;99036.97;4909675;29;20047;-81
2022/06/28 05:41:55;;;;;;;9.00;2.92;;;;;;;16.60;100.00;99035.78;4909436;29;20032;-83
2022/06/28 05:44:20;;;;;;;14.07;2.97;;;;;;;16.51;100.00;99026.59;4907014;29;20039;-81
2022/06/28 05:46:46;;;;;;;14.73;3.45;;;;;;;16.37;100.00;99033.97;4914569;29;20036;-83
2022/06/28 05:49:12;;;;;;;12.18;3.42;;;;;;;16.23;100.00;99036.06;4878217;29;20036;-83
2022/06/28 05:51:38;;;;;;;15.27;4.15;;;;;;;16.30;100.00;99035.94;4887713;29;20024;-84
2022/06/28 05:54:03;;;;;;;15.00;3.33;;;;;;;15.99;100.00;99031.56;4891448;29;20124;-84
2022/06/28 05:56:30;;;;;;;9.93;4.00;;;;;;;16.00;100.00;99040.34;4872925;29;20396;-85
2022/06/28 05:58:56;;;;;;;13.30;4.32;;;;;;;16.06;100.00;99039.41;4903352;29;20043;-84
2022/06/28 06:01:23;;;;;;;13.70;3.35;;;;;;;15.74;100.00;99036.25;4905558;29;20557;-85
2022/06/28 06:03:50;;;;;;;18.30;3.55;;;;;;;15.79;100.00;99039.03;4887909;29;20440;-86
2022/06/28 06:06:17;;;;;;;18.08;3.70;;;;;;;15.87;100.00;99037.88;4890942;29;20036;-84
2022/06/28 06:08:43;;;;;;;9.95;3.17;;;;;;;15.93;100.00;99037.00;4901772;29;20063;-81
2022/06/28 06:11:09;;;;;;;15.30;3.65;;;;;;;15.91;100.00;99028.47;4886858;29;20080;-81
2022/06/28 06:13:38;;;;;;;11.50;3.58;;;;;;;15.99;100.00;99036.09;4901776;29;20071;-81
2022/06/28 06:16:05;;;;;;;17.75;3.75;;;;;;;15.85;100.00;99038.13;4886137;29;20407;-82
2022/06/28 06:18:32;;;;;;;10.45;3.20;;;;;;;16.22;100.00;99039.75;4885205;29;20051;-83
2022/06/28 06:20:57;;;;;;;13.27;3.08;;;;;;;16.31;100.00;99029.63;4906264;29;20029;-82
2022/06/28 06:23:23;;;;;;;15.65;3.50;;;;;;;16.45;100.00;99033.63;4904564;29;20369;-83
2022/06/28 06:25:49;;;;;;;14.82;3.78;;;;;;;16.43;100.00;99035.72;4903501;29;20048;-83
2022/06/28 06:28:15;;;;;;;15.98;3.65;;;;;;;16.33;100.00;99052.19;4905375;29;20044;-83
2022/06/28 06:30:41;;;;;;;12.85;3.55;;;;;;;16.47;100.00;99052.75;4900508;29;20475;-83
2022/06/28 06:33:06;;;;;;;17.00;3.65;;;;;;;16.28;100.00;99044.13;4900437;29;20044;-84
2022/06/28 06:35:32;;;;;;;14.80;3.42;;;;;;;16.60;100.00;99035.78;4886714;29;20036;-83
2022/06/28 06:38:00;;;;;;;17.98;2.97;;;;;;;16.38;100.00;99043.53;4896552;29;20044;-84
2022/06/28 06:40:27;;;;;;;15.80;3.03;;;;;;;16.59;100.00;99039.47;4911271;29;20040;-86
2022/06/28 06:42:53;;;;;;;15.60;3.80;;;;;;;16.38;100.00;99033.75;4870358;29;20056;-87
2022/06/28 06:45:19;;;;;;;16.80;4.10;;;;;;;16.33;100.00;99033.66;4890747;29;20067;-88
2022/06/28 06:47:44;;;;;;;18.50;3.72;;;;;;;16.44;100.00;99052.41;4905003;29;20040;-83
2022/06/28 06:50:10;;;;;;;15.00;3.50;;;;;;;16.76;100.00;99036.88;4905760;29;20051;-84
2022/06/28 06:52:37;;;;;;;18.17;3.97;;;;;;;16.40;100.00;99041.44;4901372;29;20112;-84
2022/06/28 06:55:03;;;;;;;10.18;3.15;;;;;;;17.04;100.00;99029.22;4888919;29;20084;-87
2022/06/28 06:57:29;;;;;;;10.93;3.40;;;;;;;17.34;100.00;99022.84;4888568;29;20032;-83
2022/06/28 06:59:55;;;;;;;20.27;4.05;;;;;;;17.41;100.00;99028.78;4890381;29;20483;-82
2022/06/28 07:02:20;;;;;;;13.75;3.45;;;;;;;17.50;100.00;99011.44;4888501;29;20037;-85
2022/06/28 07:04:46;;;;;;;16.10;3.63;;;;;;;17.46;99.40;99026.22;4869957;29;20036;-84
2022/06/28 07:07:12;;;;;;;14.30;3.50;;;;;;;17.39;99.47;99014.97;4875465;29;20060;-86
2022/06/28 07:09:37;;;;;;;15.27;3.33;;;;;;;17.57;98.38;99027.19;4908258;29;20032;-85
2022/06/28 07:12:04;;;;;;;16.50;3.42;;;;;;;17.46;98.28;99022.78;4907309;29;20067;-87
2022/06/28 07:14:30;;;;;;;16.13;3.35;;;;;;;17.15;98.08;99020.41;4886897;29;20043;-88
2022/06/28 07:16:55;;;;;;;13.15;3.17;;;;;;;17.48;99.06;99037.41;4885022;29;20119;-84
2022/06/28 07:19:21;;;;;;;16.58;3.65;;;;;;;17.54;97.61;99027.69;4889349;29;20036;-88
2022/06/28 07:21:47;;;;;;;16.10;3.17;;;;;;;18.04;96.37;99042.00;4889373;29;20395;-86
2022/06/28 07:24:13;;;;;;;24.73;3.33;;;;;;;17.90;96.34;99032.75;4911634;29;20048;-88
2022/06/28 07:26:39;;;;;;;16.23;3.65;;;;;;;18.08;96.48;99037.03;4906171;29;20075;-90
2022/06/28 07:29:05;;;;;;;14.23;3.38;;;;;;;18.36;96.16;99048.53;4907006;29;20032;-88
2022/06/28 07:31:31;;;;;;;11.80;3.20;;;;;;;18.73;95.05;99036.50;4877226;29;20064;-89
2022/06/28 07:33:58;;;;;;;17.17;3.58;;;;;;;18.64;93.49;99039.59;4910853;29;20488;-88
2022/06/28 07:36:23;;;;;;;14.82;3.95;;;;;;;18.39;93.71;99032.91;4910807;29;20032;-89
2022/06/28 07:38:50;;;;;;;10.68;3.38;;;;;;;18.69;92.64;99045.00;4889455;29;20039;-89
2022/06/28 07:41:17;;;;;;;13.15;3.60;;;;;;;18.73;94.10;99036.50;4871427;29;20120;-87
2022/06/28 07:43:43;;;;;;;12.63;4.07;;;;;;;18.67;93.21;99023.16;4899084;29;20160;-89
2022/06/28 07:46:08;;;;;;;15.60;4.20;;;;;;;19.06;93.29;99029.44;4905559;29;20039;-89
2022/06/28 07:48:34;;;;;;;12.38;3.15;;;;;;;19.00;91.53;99007.31;4888271;29;20477;-87
2022/06/28 07:53:51;;;;;;;10.80;4.32;;;;;;;19.11;91.51;99010.88;4909165;29;20037;-88
2022/06/28 07:56:16;;;;;;;18.77;3.63;;;;;;;19.16;91.24;99002.94;4897048;29;20068;-89
2022/06/28 07:58:43;;;;;;;9.77;2.97;;;;;;;19.05;90.99;99006.53;4887493;29;20088;-89
2022/06/28 08:01:10;;;;;;;11.38;3.55;;;;;;;19.05;91.23;99007.38;4891395;29;20040;-89
2022/06/28 08:03:35;;;;;;;14.80;3.05;;;;;;;19.49;90.77;99009.09;4910003;29;20491;-87
2022/06/28 08:06:01;;;;;;;10.45;3.03;;;;;;;19.49;90.40;99017.06;4906123;29;20624;-87
2022/06/28 08:08:27;;;;;;;14.35;3.08;;;;;;;19.69;89.75;99013.75;4893554;29;20043;-89
2022/06/28 08:10:53;;;;;;;12.68;3.30;;;;;;;19.74;88.79;99007.66;4896120;29;20133;-90
2022/06/28 08:13:19;;;;;;;11.75;3.40;;;;;;;19.55;88.51;99005.41;4893190;29;20135;-86
2022/06/28 08:15:46;;;;;;;12.30;3.80;;;;;;;19.46;88.24;99000.78;4906233;29;20036;-87
2022/06/28 08:18:13;;;;;;;11.25;3.53;;;;;;;19.34;88.84;99019.59;4910010;29;20039;-88
2022/06/28 08:20:53;;;;;;;14.95;3.50;;;;;;;19.15;89.13;98993.34;4912187;29;20033;-87
2022/06/28 08:23:20;;;;;;;15.90;3.40;;;;;;;19.75;88.31;99008.44;4873902;29;20037;-87
2022/06/28 08:25:47;;;;;;;10.02;3.63;;;;;;;19.74;87.58;99013.00;4909394;29;20047;-88
2022/06/28 08:28:14;;;;;;;11.82;3.55;;;;;;;19.73;87.19;99014.03;4897487;29;20401;-86
2022/06/28 08:30:42;;;;;;;14.60;3.60;;;;;;;20.01;87.08;99014.00;4900466;29;20056;-86
2022/06/28 08:33:09;;;;;;;13.70;3.53;;;;;;;19.73;86.98;98994.59;4909724;29;20029;-86
2022/06/28 08:35:35;;;;;;;9.50;3.00;;;;;;;19.76;86.04;99010.06;4887349;29;20032;-86
2022/06/28 08:38:04;;;;;;;19.52;4.82;;;;;;;19.94;86.60;99011.53;4885115;29;20475;-87
2022/06/28 08:40:31;;;;;;;20.00;4.22;;;;;;;20.25;86.59;99011.72;4892779;29;20039;-86
2022/06/28 08:42:58;;;;;;;13.57;3.78;;;;;;;20.11;84.67;99022.84;4891694;29;20093;-85
2022/06/28 08:45:28;;;;;;;15.52;3.75;;;;;;;20.09;85.95;98998.31;4911350;29;20100;-87
2022/06/28 08:47:56;;;;;;;16.25;3.47;;;;;;;20.45;84.93;98999.56;4908463;29;20040;-83
2022/06/28 08:50:34;;;;;;;15.93;3.58;;;;;;;20.63;84.78;98990.28;4900815;29;20036;-82
2022/06/28 08:53:02;;;;;;;15.13;4.20;;;;;;;20.49;84.08;98989.97;4914658;29;20035;-83
2022/06/28 08:55:31;;;;;;;14.50;3.50;;;;;;;20.40;84.82;99001.09;4910135;29;20028;-83
2022/06/28 08:57:58;;;;;;;10.63;3.97;;;;;;;20.57;85.31;98994.78;4901263;29;20044;-82
2022/06/28 09:00:24;;;;;;;12.35;3.60;;;;;;;20.79;84.24;98983.91;4892213;29;20032;-83
2022/06/28 09:02:51;;;;;;;13.82;3.92;;;;;;;20.55;84.01;98994.25;4884121;29;20077;-82
2022/06/28 09:05:20;;;;;;;16.73;3.92;;;;;;;20.91;83.74;98983.69;4908807;29;20479;-83
2022/06/28 09:07:46;;;;;;;11.88;3.65;;;;;;;21.24;82.84;98976.25;4907848;29;20044;-82
2022/06/28 09:10:12;;;;;;;13.07;4.97;;;;;;;20.82;82.36;98979.94;4919024;29;20436;-82
2022/06/28 09:12:39;;;;;;;12.20;3.22;;;;;;;21.22;81.86;98970.41;4904222;29;20135;-83
2022/06/28 09:15:06;;;;;;;18.02;4.20;;;;;;;21.17;81.54;98969.59;4916253;29;20029;-87
2022/06/28 09:17:33;;;;;;;16.33;4.00;;;;;;;21.14;81.44;98962.91;4875981;29;20029;-87
2022/06/28 09:20:06;;;;;;;17.65;3.85;;;;;;;21.41;80.63;98964.50;4906817;29;20167;-86
2022/06/28 09:22:36;;;;;;;12.20;3.83;;;;;;;21.49;81.10;98974.66;4907085;29;20036;-86
2022/06/28 09:25:10;;;;;;;13.63;4.13;;;;;;;21.44;80.24;98958.63;4888790;29;20032;-87
2022/06/28 09:27:39;;;;;;;16.35;3.88;;;;;;;21.65;80.54;98958.63;4890422;29;20036;-87
2022/06/28 09:30:11;;;;;;;11.05;3.80;;;;;;;21.58;79.49;98950.88;4876323;29;20036;-87
2022/06/28 09:32:38;;;;;;;15.07;4.30;;;;;;;21.63;80.47;98952.75;4907746;29;20085;-88
2022/06/28 09:35:07;;;;;;;9.80;3.50;;;;;;;21.49;80.09;98947.94;4890334;29;20079;-82
2022/06/28 09:37:50;;;;;;;8.80;3.25;;;;;;;21.59;79.93;98952.47;4907335;29;21672;-88
2022/06/28 09:40:16;;;;;;;9.90;3.47;;;;;;;21.36;80.56;98959.16;4907050;29;20029;-88
2022/06/28 09:42:43;;;;;;;8.35;3.13;;;;;;;21.69;78.85;98960.47;4907367;29;20037;-85
2022/06/28 09:45:10;;;;;;;16.58;3.83;;;;;;;21.50;78.62;98954.88;4891211;29;20035;-87
2022/06/28 09:47:45;;;;;;;13.35;4.13;;;;;;;21.96;78.39;98962.03;4872705;29;20040;-87
2022/06/28 09:50:13;;;;;;;9.25;3.45;;;;;;;22.63;77.30;98947.59;4889703;29;20076;-88
2022/06/28 09:52:43;;;;;;;11.77;4.03;;;;;;;22.81;75.67;98942.69;4874308;29;20032;-87
2022/06/28 09:55:09;;;;;;;12.00;3.72;;;;;;;22.91;76.29;98931.88;4886659;29;20036;-88
2022/06/28 09:57:35;;;;;;;8.57;3.25;;;;;;;23.03;76.62;98936.09;4909203;29;20029;-90
2022/06/28 10:00:01;;;;;;;8.48;3.50;;;;;;;23.04;74.92;98933.13;4905675;29;20468;-88
2022/06/28 10:02:27;;;;;;;10.90;3.97;;;;;;;23.34;73.50;98927.81;4885186;29;20048;-88
2022/06/28 10:04:53;;;;;;;11.52;3.90;;;;;;;23.39;74.58;98931.25;4875611;29;20553;-89
2022/06/28 10:07:21;;;;;;;8.85;4.00;;;;;;;23.07;74.30;98926.41;4877061;29;20047;-89
2022/06/28 10:09:47;;;;;;;9.32;3.85;;;;;;;23.22;74.25;98914.78;4900176;29;20032;-87
2022/06/28 10:15:01;;;;;;;11.18;3.30;;;;;;;23.37;72.68;98914.66;4905364;29;20039;-86
2022/06/28 10:17:34;;;;;;;8.85;3.75;;;;;;;23.25;69.35;98920.41;4915622;29;20032;-86
2022/06/28 10:20:03;;;;;;;10.27;3.60;;;;;;;23.36;68.06;98909.59;4891966;29;20506;-88
2022/06/28 10:22:29;;;;;;;8.00;3.35;;;;;;;23.65;67.65;98906.09;4889357;29;20056;-87
2022/06/28 10:24:57;;;;;;;12.88;3.53;;;;;;;23.99;68.34;98897.13;4874562;29;20059;-87
2022/06/28 10:27:23;;;;;;;9.98;3.30;;;;;;;24.37;68.09;98910.59;4907321;29;20028;-85
2022/06/28 10:29:58;;;;;;;11.07;3.65;;;;;;;24.35;67.08;98912.75;4907207;29;20069;-85
2022/06/28 10:32:59;;;;;;;9.27;3.78;;;;;;;24.52;66.44;98890.00;4909317;29;20108;-86
2022/06/28 10:35:31;;;;;;;12.73;3.17;;;;;;;24.25;63.51;98892.22;4882856;29;20052;-86
2022/06/28 10:38:09;;;;;;;8.40;3.38;;;;;;;23.57;64.67;98904.81;4905568;29;20476;-87
2022/06/28 10:40:41;;;;;;;9.13;3.88;;;;;;;23.15;65.41;98893.69;4908004;29;20048;-86
2022/06/28 10:43:07;;;;;;;9.60;3.60;;;;;;;23.47;65.09;98891.53;4904538;29;20029;-87
2022/06/28 10:46:04;;;;;;;8.48;3.58;;;;;;;23.33;64.32;98896.75;4902733;29;20040;-85
2022/06/28 10:48:51;;;;;;;14.02;3.63;;;;;;;23.32;65.23;98904.00;4889960;29;20048;-84
2022/06/28 10:51:18;;;;;;;7.55;3.22;;;;;;;23.57;65.33;98893.31;4905194;29;20036;-85
2022/06/28 10:54:01;;;;;;;12.32;3.17;;;;;;;23.47;65.39;98888.84;4892750;29;20039;-85
2022/06/28 10:56:30;;;;;;;9.25;3.85;;;;;;;23.20;64.43;98885.63;4906029;29;20036;-84
2022/06/28 10:59:05;;;;;;;10.65;3.78;;;;;;;23.61;64.22;98879.06;4891069;29;20033;-85
2022/06/28 11:01:39;;;;;;;8.88;3.95;;;;;;;23.40;63.17;98905.28;4907288;29;20079;-82
2022/06/28 11:04:10;;;;;;;8.52;3.65;;;;;;;23.69;64.15;98885.66;4898789;29;20522;-80
2022/06/28 11:06:43;;;;;;;10.60;3.53;;;;;;;23.33;62.53;98886.03;4909935;29;20110;-82
2022/06/28 11:09:23;;;;;;;7.95;3.42;;;;;;;23.53;63.68;98883.16;4893399;29;20444;-83
2022/06/28 11:12:09;;;;;;;11.80;3.78;;;;;;;24.13;63.24;98878.47;4901472;29;20045;-82
2022/06/28 11:14:47;;;;;;;7.25;3.20;;;;;;;23.67;62.83;98871.78;4907345;29;20044;-82
2022/06/28 11:17:16;;;;;;;8.32;3.28;;;;;;;23.86;63.91;98881.72;4895222;29;20482;-81
2022/06/28 11:19:50;;;;;;;7.88;3.47;;;;;;;23.98;63.67;98876.75;4891608;29;20032;-80
2022/06/28 11:22:47;;;;;;;11.05;3.58;;;;;;;23.87;64.14;98880.66;4895109;29;20064;-84
2022/06/28 11:25:21;;;;;;;9.98;3.80;;;;;;;24.08;63.86;98876.66;4879168;29;20051;-85
2022/06/28 11:27:58;;;;;;;10.13;3.30;;;;;;;23.93;62.76;98874.13;4887689;29;20040;-84
2022/06/28 11:30:27;;;;;;;15.07;3.97;;;;;;;24.47;62.64;98865.94;4889769;29;20445;-83
2022/06/28 11:32:55;;;;;;;13.15;3.80;;;;;;;24.59;61.72;98860.91;4881970;29;20454;-83
2022/06/28 11:35:30;;;;;;;11.30;3.45;;;;;;;24.91;61.77;98853.19;4889438;29;20454;-83
2022/06/28 11:37:57;;;;;;;10.80;3.30;;;;;;;24.49;61.31;98853.00;4877219;29;20035;-83
2022/06/28 11:40:50;;;;;;;9.77;3.83;;;;;;;24.39;61.99;98851.28;4882262;29;20033;-84